createdAt,value
2022-10-17T00:02:26.399Z,100799.97
2022-10-17T00:04:52.869Z,100797.50
2022-10-17T00:07:19.399Z,100789.94
2022-10-17T00:09:45.866Z,100786.25
2022-10-17T00:12:12.338Z,100783.22
2022-10-17T00:14:39.161Z,100786.66
2022-10-17T00:17:06.202Z,100786.19
2022-10-17T00:19:32.758Z,100783.19
2022-10-17T00:21:59.327Z,100793.59
2022-10-17T00:24:25.945Z,100777.84
2022-10-17T00:26:52.415Z,100788.25
2022-10-17T00:29:18.983Z,100772.91
2022-10-17T00:31:45.612Z,100774.22
2022-10-17T00:34:13.023Z,100783.94
2022-10-17T00:36:39.594Z,100777.91
2022-10-17T00:39:06.068Z,100777.19
2022-10-17T00:41:33.878Z,100780.31
2022-10-17T00:44:06.470Z,100774.53
2022-10-17T00:46:38.172Z,100776.78
2022-10-17T00:49:13.616Z,100773.94
2022-10-17T00:52:01.180Z,100770.66
2022-10-17T00:54:33.885Z,100772.78
2022-10-17T00:57:01.674Z,100775.28
2022-10-17T00:59:29.417Z,100768.25
2022-10-17T01:02:08.498Z,100769.28
2022-10-17T01:04:37.167Z,100770.31
2022-10-17T01:07:03.694Z,100769.47
2022-10-17T01:09:30.615Z,100760.03
2022-10-17T01:12:11.038Z,100760.72
2022-10-17T01:14:47.937Z,100760.84
2022-10-17T01:17:25.518Z,100760.16
2022-10-17T01:20:43.424Z,100750.00
2022-10-17T01:23:54.139Z,100764.19
2022-10-17T01:26:39.071Z,100750.75
2022-10-17T01:29:13.080Z,100746.94
2022-10-17T01:32:02.132Z,100747.66
2022-10-17T01:34:35.148Z,100739.84
2022-10-17T01:37:13.131Z,100731.09
2022-10-17T01:39:45.660Z,100739.16
2022-10-17T01:42:18.843Z,100732.44
2022-10-17T01:44:56.249Z,100734.44
2022-10-17T01:47:27.979Z,100735.59
2022-10-17T01:49:58.274Z,100733.44
2022-10-17T01:52:51.143Z,100724.81
2022-10-17T01:55:23.647Z,100731.03
2022-10-17T01:57:54.632Z,100728.44
2022-10-17T02:00:23.772Z,100724.69
2022-10-17T02:02:55.118Z,100715.00
2022-10-17T02:05:26.401Z,100716.50
2022-10-17T02:07:52.899Z,100712.97
2022-10-17T02:10:36.018Z,100723.25
2022-10-17T02:13:22.686Z,100701.88
2022-10-17T02:16:04.383Z,100697.38
2022-10-17T02:18:38.698Z,100688.94
2022-10-17T02:21:24.520Z,100697.88
2022-10-17T02:24:05.971Z,100694.22
2022-10-17T02:26:41.155Z,100693.97
2022-10-17T02:29:19.214Z,100693.31
2022-10-17T02:32:12.071Z,100687.59
2022-10-17T02:34:49.158Z,100690.75
2022-10-17T02:37:19.676Z,100687.34
2022-10-17T02:39:47.504Z,100692.53
2022-10-17T02:42:15.285Z,100692.66
2022-10-17T02:44:44.674Z,100678.84
2022-10-17T02:47:26.008Z,100683.78
2022-10-17T02:49:55.571Z,100679.53
2022-10-17T02:52:25.069Z,100667.06
2022-10-17T02:54:57.847Z,100680.22
2022-10-17T02:57:31.089Z,100671.72
2022-10-17T03:00:00.856Z,100670.50
2022-10-17T03:02:28.269Z,100678.31
2022-10-17T03:04:55.109Z,100668.16
2022-10-17T03:07:21.617Z,100663.22
2022-10-17T03:09:48.080Z,100673.91
2022-10-17T03:12:14.608Z,100674.06
2022-10-17T03:14:41.086Z,100670.63
2022-10-17T03:17:07.549Z,100663.91
2022-10-17T03:19:34.068Z,100673.91
2022-10-17T03:22:00.547Z,100678.16
2022-10-17T03:24:27.039Z,100678.00
2022-10-17T03:26:53.560Z,100678.84
2022-10-17T03:29:20.043Z,100669.94
2022-10-17T03:31:46.742Z,100669.25
2022-10-17T03:34:13.256Z,100670.19
2022-10-17T03:36:39.707Z,100667.88
2022-10-17T03:39:06.239Z,100660.22
2022-10-17T03:41:32.779Z,100653.75
2022-10-17T03:43:59.257Z,100654.72
2022-10-17T03:46:25.731Z,100648.16
2022-10-17T03:48:52.412Z,100655.00
2022-10-17T03:51:19.134Z,100655.56
2022-10-17T03:53:45.596Z,100644.59
2022-10-17T03:56:23.682Z,100631.56
2022-10-17T03:58:50.287Z,100643.22
2022-10-17T04:01:18.961Z,100635.00
2022-10-17T04:03:51.699Z,100641.97
2022-10-17T04:06:18.967Z,100656.19
2022-10-17T04:08:45.766Z,100642.00
2022-10-17T04:11:16.148Z,100642.47
2022-10-17T04:13:43.668Z,100642.44
2022-10-17T04:16:17.149Z,100644.91
2022-10-17T04:18:44.417Z,100642.06
2022-10-17T04:21:11.836Z,100645.47
2022-10-17T04:23:38.876Z,100656.44
2022-10-17T04:26:06.815Z,100650.69
2022-10-17T04:28:34.141Z,100647.81
2022-10-17T04:31:06.478Z,100647.25
2022-10-17T04:33:34.150Z,100640.41
2022-10-17T04:36:01.555Z,100639.69
2022-10-17T04:38:29.655Z,100628.72
2022-10-17T04:41:00.801Z,100641.47
2022-10-17T04:43:27.276Z,100639.97
2022-10-17T04:45:53.753Z,100644.09
2022-10-17T04:48:20.517Z,100637.22
2022-10-17T04:51:00.378Z,100636.28
2022-10-17T04:53:27.948Z,100636.69
2022-10-17T04:55:54.658Z,100627.63
2022-10-17T04:58:22.166Z,100625.97
2022-10-17T05:00:48.843Z,100616.97
2022-10-17T05:03:15.516Z,100620.25
2022-10-17T05:05:42.669Z,100611.03
2022-10-17T05:08:10.666Z,100613.16
2022-10-17T05:10:38.547Z,100607.44
2022-10-17T05:13:05.548Z,100605.38
2022-10-17T05:15:32.317Z,100627.88
2022-10-17T05:17:58.893Z,100611.25
2022-10-17T05:20:26.141Z,100621.50
2022-10-17T05:22:52.720Z,100611.75
2022-10-17T05:25:20.072Z,100614.19
2022-10-17T05:27:46.735Z,100607.47
2022-10-17T05:30:13.310Z,100606.78
2022-10-17T05:32:39.936Z,100597.31
2022-10-17T05:35:06.925Z,100594.63
2022-10-17T05:37:33.555Z,100602.50
2022-10-17T05:40:00.225Z,100599.06
2022-10-17T05:42:27.272Z,100604.66
2022-10-17T05:44:54.138Z,100597.78
2022-10-17T05:47:20.616Z,100593.88
2022-10-17T05:49:51.513Z,100591.84
2022-10-17T05:52:19.153Z,100599.53
2022-10-17T05:54:45.788Z,100593.69
2022-10-17T05:57:12.253Z,100583.06
2022-10-17T05:59:38.820Z,100582.91
2022-10-17T06:02:05.397Z,100578.50
2022-10-17T06:04:32.326Z,100573.88
2022-10-17T06:06:58.829Z,100574.44
2022-10-17T06:09:25.311Z,100556.06
2022-10-17T06:11:51.783Z,100551.47
2022-10-17T06:14:18.519Z,100557.50
2022-10-17T06:16:45.136Z,100564.41
2022-10-17T06:19:11.640Z,100559.53
2022-10-17T06:21:38.228Z,100560.78
2022-10-17T06:24:04.774Z,100542.66
2022-10-17T06:26:31.264Z,100551.72
2022-10-17T06:28:57.921Z,100545.97
2022-10-17T06:31:24.599Z,100547.75
2022-10-17T06:33:51.148Z,100550.81
2022-10-17T06:36:17.732Z,100536.09
2022-10-17T06:38:44.363Z,100543.41
2022-10-17T06:41:13.491Z,100542.94
2022-10-17T06:43:42.215Z,100537.09
2022-10-17T06:46:09.141Z,100538.19
2022-10-17T06:48:35.617Z,100533.38
2022-10-17T06:51:03.289Z,100537.38
2022-10-17T06:53:30.934Z,100539.38
2022-10-17T06:55:57.780Z,100549.50
2022-10-17T06:58:24.409Z,100523.25
2022-10-17T07:00:50.966Z,100540.97
2022-10-17T07:03:17.533Z,100535.56
2022-10-17T07:05:51.595Z,100546.59
2022-10-17T07:08:18.129Z,100539.34
2022-10-17T07:10:44.645Z,100542.25
2022-10-17T07:13:11.433Z,100543.00
2022-10-17T07:15:38.624Z,100533.03
2022-10-17T07:18:05.641Z,100528.91
2022-10-17T07:20:32.279Z,100531.38
2022-10-17T07:22:58.790Z,100526.25
2022-10-17T07:25:25.302Z,100522.38
2022-10-17T07:27:53.090Z,100515.69
2022-10-17T07:30:20.349Z,100523.88
2022-10-17T07:32:47.312Z,100515.19
2022-10-17T07:35:14.488Z,100500.63
2022-10-17T07:37:41.273Z,100497.03
2022-10-17T07:40:08.631Z,100479.88
2022-10-17T07:45:06.676Z,100487.91
2022-10-17T07:47:33.356Z,100489.97
2022-10-17T07:50:00.025Z,100500.75
2022-10-17T07:52:26.738Z,100484.84
2022-10-17T07:54:53.331Z,100481.13
2022-10-17T07:57:19.836Z,100496.31
2022-10-17T07:59:46.325Z,100493.75
2022-10-17T08:02:21.205Z,100495.19
2022-10-17T08:04:47.665Z,100477.34
2022-10-17T08:07:20.958Z,100464.94
2022-10-17T08:09:49.960Z,100472.59
2022-10-17T08:12:16.636Z,100467.72
2022-10-17T08:14:44.028Z,100471.63
2022-10-17T08:17:10.765Z,100455.16
2022-10-17T08:19:40.700Z,100469.31
2022-10-17T08:22:07.977Z,100440.81
2022-10-17T08:24:34.765Z,100465.78
2022-10-17T08:27:01.420Z,100454.34
2022-10-17T08:29:27.930Z,100460.88
2022-10-17T08:31:58.668Z,100460.97
2022-10-17T08:34:27.509Z,100463.09
2022-10-17T08:36:54.092Z,100442.16
2022-10-17T08:39:20.697Z,100450.72
2022-10-17T08:41:47.125Z,100436.91
2022-10-17T08:44:38.045Z,100454.75
2022-10-17T08:47:16.555Z,100456.66
2022-10-17T08:49:54.620Z,100443.88
2022-10-17T08:52:48.951Z,100436.28
2022-10-17T08:55:33.358Z,100437.63
2022-10-17T08:57:59.956Z,100435.53
2022-10-17T09:00:28.640Z,100437.53
2022-10-17T09:03:01.129Z,100428.53
2022-10-17T09:06:02.879Z,100444.06
2022-10-17T09:08:50.415Z,100432.28
2022-10-17T09:11:43.431Z,100442.06
2022-10-17T09:14:40.210Z,100430.00
2022-10-17T09:17:28.468Z,100436.00
2022-10-17T09:20:09.241Z,100431.78
2022-10-17T09:23:06.742Z,100418.00
2022-10-17T09:25:42.569Z,100424.63
2022-10-17T09:28:34.832Z,100419.47
2022-10-17T09:31:24.308Z,100428.81
2022-10-17T09:33:55.374Z,100434.31
2022-10-17T09:36:24.946Z,100429.47
2022-10-17T09:39:12.842Z,100433.28
2022-10-17T09:41:46.518Z,100427.91
2022-10-17T09:44:19.890Z,100417.69
2022-10-17T09:46:57.697Z,100426.34
2022-10-17T09:49:35.877Z,100425.38
2022-10-17T09:52:12.071Z,100427.13
2022-10-17T09:54:51.321Z,100431.00
2022-10-17T09:57:19.680Z,100434.94
2022-10-17T10:00:25.514Z,100422.81
2022-10-17T10:03:10.911Z,100409.72
2022-10-17T10:05:37.529Z,100391.88
2022-10-17T10:08:16.315Z,100394.66
2022-10-17T10:10:43.833Z,100398.41
2022-10-17T10:13:13.031Z,100404.31
2022-10-17T10:15:50.241Z,100394.66
2022-10-17T10:18:35.931Z,100406.28
2022-10-17T10:21:11.893Z,100390.41
2022-10-17T10:23:59.752Z,100385.97
2022-10-17T10:26:41.564Z,100385.97
2022-10-17T10:29:32.633Z,100384.16
2022-10-17T10:32:26.144Z,100381.38
2022-10-17T10:34:57.574Z,100401.84
2022-10-17T10:37:38.637Z,100397.75
2022-10-17T10:40:07.160Z,100399.72
2022-10-17T10:42:36.912Z,100411.50
2022-10-17T10:45:46.505Z,100387.97
2022-10-17T10:48:37.947Z,100391.22
2022-10-17T10:51:07.073Z,100366.53
2022-10-17T10:54:04.558Z,100361.09
2022-10-17T10:56:37.711Z,100364.72
2022-10-17T10:59:10.086Z,100356.72
2022-10-17T11:01:57.839Z,100353.91
2022-10-17T11:04:40.052Z,100359.13
2022-10-17T11:07:13.441Z,100362.41
2022-10-17T11:10:08.590Z,100366.84
2022-10-17T11:13:00.522Z,100346.22
2022-10-17T11:15:29.883Z,100349.97
2022-10-17T11:18:04.243Z,100351.28
2022-10-17T11:20:42.027Z,100333.78
2022-10-17T11:23:41.434Z,100322.84
2022-10-17T11:26:13.232Z,100310.06
2022-10-17T11:28:39.855Z,100299.56
2022-10-17T11:31:13.504Z,100328.69
2022-10-17T11:33:48.621Z,100317.56
2022-10-17T11:36:17.891Z,100302.19
2022-10-17T11:39:05.481Z,100323.13
2022-10-17T11:41:39.716Z,100317.22
2022-10-17T11:44:37.909Z,100315.41
2022-10-17T11:47:23.195Z,100305.59
2022-10-17T11:49:55.834Z,100308.97
2022-10-17T11:52:55.843Z,100296.69
2022-10-17T11:55:28.578Z,100298.78
2022-10-17T11:58:23.113Z,100292.88
2022-10-17T12:01:15.166Z,100288.78
2022-10-17T12:04:09.624Z,100283.22
2022-10-17T12:06:55.803Z,100283.03
2022-10-17T12:09:34.344Z,100286.81
2022-10-17T12:12:03.616Z,100285.03
2022-10-17T12:14:39.007Z,100278.47
2022-10-17T12:17:22.912Z,100288.97
2022-10-17T12:19:49.443Z,100294.22
2022-10-17T12:22:22.476Z,100278.63
2022-10-17T12:25:03.147Z,100282.38
2022-10-17T12:27:44.499Z,100271.72
2022-10-17T12:30:16.874Z,100274.47
2022-10-17T12:33:16.285Z,100282.28
2022-10-17T12:35:42.909Z,100282.16
2022-10-17T12:38:18.295Z,100271.34
2022-10-17T12:40:48.587Z,100274.63
2022-10-17T12:43:15.418Z,100270.50
2022-10-17T12:45:56.445Z,100274.34
2022-10-17T12:48:38.451Z,100278.78
2022-10-17T12:51:36.384Z,100277.31
2022-10-17T12:54:14.561Z,100262.00
2022-10-17T12:56:49.645Z,100284.81
2022-10-17T12:59:18.145Z,100284.69
2022-10-17T13:01:49.516Z,100275.31
2022-10-17T13:04:16.776Z,100270.03
2022-10-17T13:06:49.153Z,100263.00
2022-10-17T13:09:25.222Z,100246.28
2022-10-17T13:11:53.242Z,100256.63
2022-10-17T13:14:22.258Z,100244.28
2022-10-17T13:17:05.228Z,100243.66
2022-10-17T13:19:45.787Z,100249.88
2022-10-17T13:22:19.469Z,100244.78
2022-10-17T13:24:46.525Z,100237.91
2022-10-17T13:27:34.607Z,100242.72
2022-10-17T13:30:03.500Z,100254.63
2022-10-17T13:32:38.643Z,100246.13
2022-10-17T13:35:10.808Z,100244.16
2022-10-17T13:37:40.037Z,100248.13
2022-10-17T13:40:30.720Z,100240.09
2022-10-17T13:42:56.452Z,100235.78
2022-10-17T13:45:36.814Z,100220.44
2022-10-17T13:48:06.180Z,100231.22
2022-10-17T13:50:45.791Z,100226.81
2022-10-17T13:53:33.649Z,100227.09
2022-10-17T13:56:28.282Z,100233.00
2022-10-17T13:58:59.604Z,100237.53
2022-10-17T14:01:28.469Z,100233.47
2022-10-17T14:04:07.618Z,100239.06
2022-10-17T14:06:45.042Z,100231.34
2022-10-17T14:09:32.868Z,100224.25
2022-10-17T14:12:06.513Z,100227.63
2022-10-17T14:14:51.648Z,100235.38
2022-10-17T14:17:25.211Z,100218.81
2022-10-17T14:20:14.191Z,100219.94
2022-10-17T14:22:47.050Z,100218.28
2022-10-17T14:25:35.449Z,100223.66
2022-10-17T14:28:13.436Z,100226.47
2022-10-17T14:30:57.666Z,100220.88
2022-10-17T14:33:31.162Z,100222.16
2022-10-17T14:36:00.079Z,100224.59
2022-10-17T14:38:28.595Z,100224.47
2022-10-17T14:41:41.340Z,100217.44
2022-10-17T14:44:14.894Z,100196.97
2022-10-17T14:46:49.716Z,100206.75
2022-10-17T14:49:25.219Z,100220.88
2022-10-17T14:52:15.140Z,100214.47
2022-10-17T14:54:48.789Z,100230.19
2022-10-17T14:57:19.095Z,100211.50
2022-10-17T14:59:54.589Z,100203.97
2022-10-17T15:02:22.217Z,100211.31
2022-10-17T15:04:48.735Z,100216.22
2022-10-17T15:07:16.390Z,100216.78
2022-10-17T15:09:44.034Z,100228.16
2022-10-17T15:12:22.105Z,100222.75
2022-10-17T15:14:49.009Z,100220.75
2022-10-17T15:17:20.305Z,100207.41
2022-10-17T15:19:47.833Z,100222.38
2022-10-17T15:22:14.492Z,100226.00
2022-10-17T15:24:40.980Z,100210.72
2022-10-17T15:27:15.945Z,100205.94
2022-10-17T15:29:42.560Z,100210.31
2022-10-17T15:32:09.675Z,100207.69
2022-10-17T15:34:36.579Z,100210.38
2022-10-17T15:37:04.556Z,100220.34
2022-10-17T15:39:31.140Z,100222.16
2022-10-17T15:41:57.719Z,100235.28
2022-10-17T15:44:24.296Z,100208.72
2022-10-17T15:46:50.775Z,100207.22
2022-10-17T15:49:18.725Z,100216.66
2022-10-17T15:51:45.543Z,100220.34
2022-10-17T15:56:42.248Z,100214.09
2022-10-17T15:59:18.434Z,100211.84
2022-10-17T16:01:45.169Z,100216.03
2022-10-17T16:04:12.605Z,100216.56
2022-10-17T16:06:39.321Z,100209.22
2022-10-17T16:09:05.819Z,100206.53
2022-10-17T16:11:39.727Z,100197.19
2022-10-17T16:14:15.729Z,100212.81
2022-10-17T16:16:42.639Z,100209.69
2022-10-17T16:19:09.492Z,100220.00
2022-10-17T16:21:38.931Z,100220.28
2022-10-17T16:24:06.239Z,100215.75
2022-10-17T16:26:32.931Z,100214.09
2022-10-17T16:28:59.644Z,100217.38
2022-10-17T16:31:32.958Z,100204.25
2022-10-17T16:34:00.791Z,100204.31
2022-10-17T16:36:27.536Z,100215.69
2022-10-17T16:38:54.045Z,100217.84
2022-10-17T16:41:22.289Z,100233.06
2022-10-17T16:43:50.805Z,100261.44
2022-10-17T16:46:18.489Z,100266.34
2022-10-17T16:48:45.973Z,100262.84
2022-10-17T16:51:14.480Z,100266.25
2022-10-17T16:53:41.523Z,100269.69
2022-10-17T16:56:08.239Z,100264.09
2022-10-17T16:58:34.875Z,100265.72
2022-10-17T17:01:03.399Z,100266.38
2022-10-17T17:03:30.134Z,100265.19
2022-10-17T17:05:56.668Z,100253.16
2022-10-17T17:08:23.169Z,100243.47
2022-10-17T17:10:49.665Z,100241.00
2022-10-17T17:13:16.778Z,100243.13
2022-10-17T17:18:14.849Z,100237.66
2022-10-17T17:20:41.401Z,100244.25
2022-10-17T17:23:08.268Z,100255.22
2022-10-17T17:25:37.065Z,100260.28
2022-10-17T17:28:03.745Z,100274.06
2022-10-17T17:30:30.220Z,100271.09
2022-10-17T17:32:56.834Z,100280.59
2022-10-17T17:35:23.514Z,100280.22
2022-10-17T17:37:49.985Z,100286.28
2022-10-17T17:40:16.517Z,100295.44
2022-10-17T17:42:43.053Z,100304.78
2022-10-17T17:45:09.944Z,100300.03
2022-10-17T17:47:36.445Z,100293.97
2022-10-17T17:50:03.665Z,100300.03
2022-10-17T17:52:30.473Z,100288.38
2022-10-17T17:54:57.045Z,100297.25
2022-10-17T17:57:23.581Z,100296.44
2022-10-17T17:59:50.044Z,100298.06
2022-10-17T18:02:16.687Z,100291.00
2022-10-17T18:04:43.304Z,100288.38
2022-10-17T18:07:09.752Z,100282.50
2022-10-17T18:09:36.223Z,100281.66
2022-10-17T18:12:02.793Z,100283.78
2022-10-17T18:14:29.269Z,100281.84
2022-10-17T18:16:55.733Z,100286.19
2022-10-17T18:19:22.301Z,100282.28
2022-10-17T18:21:48.794Z,100285.59
2022-10-17T18:24:15.308Z,100288.38
2022-10-17T18:26:41.920Z,100283.31
2022-10-17T18:29:08.391Z,100280.75
2022-10-17T18:31:35.267Z,100276.53
2022-10-17T18:34:02.563Z,100272.25
2022-10-17T18:36:32.039Z,100279.09
2022-10-17T18:38:59.968Z,100280.34
2022-10-17T18:41:27.624Z,100281.25
2022-10-17T18:43:55.384Z,100290.22
2022-10-17T18:46:28.403Z,100291.69
2022-10-17T18:48:55.326Z,100287.78
2022-10-17T18:51:24.864Z,100288.94
2022-10-17T18:53:54.004Z,100279.13
2022-10-17T18:56:22.052Z,100281.34
2022-10-17T18:58:48.690Z,100273.88
2022-10-17T19:01:18.371Z,100262.69
2022-10-17T19:03:46.505Z,100265.50
2022-10-17T19:06:15.281Z,100262.91
2022-10-17T19:08:42.941Z,100275.03
2022-10-17T19:11:24.875Z,100274.22
2022-10-17T19:13:52.636Z,100274.34
2022-10-17T19:16:25.388Z,100267.94
2022-10-17T19:18:57.887Z,100270.50
2022-10-17T19:21:24.704Z,100278.97
2022-10-17T19:23:53.358Z,100267.31
2022-10-17T19:26:20.765Z,100268.13
2022-10-17T19:28:47.707Z,100268.31
2022-10-17T19:31:16.989Z,100268.94
2022-10-17T19:33:44.859Z,100262.59
2022-10-17T19:36:12.772Z,100264.88
2022-10-17T19:38:39.869Z,100274.16
2022-10-17T19:41:08.303Z,100262.34
2022-10-17T19:43:39.685Z,100265.44
2022-10-17T19:46:13.418Z,100271.50
2022-10-17T19:48:40.108Z,100269.69
2022-10-17T19:51:08.789Z,100263.06
2022-10-17T19:53:35.407Z,100259.03
2022-10-17T19:56:02.334Z,100264.59
2022-10-17T19:58:28.863Z,100260.59
2022-10-17T20:00:58.504Z,100262.22
2022-10-17T20:03:25.318Z,100267.44
2022-10-17T20:05:51.959Z,100267.13
2022-10-17T20:08:19.140Z,100256.16
2022-10-17T20:10:46.094Z,100260.78
2022-10-17T20:13:13.871Z,100269.53
2022-10-17T20:15:40.961Z,100266.56
2022-10-17T20:18:08.783Z,100257.97
2022-10-17T20:20:36.503Z,100263.69
2022-10-17T20:23:04.204Z,100259.91
2022-10-17T20:25:30.987Z,100257.94
2022-10-17T20:27:58.212Z,100257.59
2022-10-17T20:30:24.838Z,100256.78
2022-10-17T20:32:55.115Z,100247.56
2022-10-17T20:35:22.473Z,100257.59
2022-10-17T20:37:49.084Z,100256.31
2022-10-17T20:43:03.909Z,100274.97
2022-10-17T20:45:44.167Z,100269.38
2022-10-17T20:48:17.667Z,100261.50
2022-10-17T20:50:44.579Z,100265.75
2022-10-17T20:53:35.376Z,100260.56
2022-10-17T20:56:08.646Z,100268.09
2022-10-17T20:58:35.925Z,100268.56
2022-10-17T21:01:07.961Z,100263.47
2022-10-17T21:03:37.851Z,100269.06
2022-10-17T21:06:09.343Z,100262.72
2022-10-17T21:08:35.932Z,100272.22
2022-10-17T21:11:10.327Z,100260.16
2022-10-17T21:13:37.345Z,100273.69
2022-10-17T21:16:07.711Z,100278.50
2022-10-17T21:18:34.242Z,100275.97
2022-10-17T21:21:26.743Z,100272.56
2022-10-17T21:23:55.612Z,100272.88
2022-10-17T21:26:22.514Z,100270.09
2022-10-17T21:28:49.322Z,100266.00
2022-10-17T21:31:27.004Z,100259.31
2022-10-17T21:33:55.960Z,100263.28
2022-10-17T21:36:23.827Z,100259.19
2022-10-17T21:38:52.244Z,100260.81
2022-10-17T21:41:20.609Z,100261.66
2022-10-17T21:43:48.199Z,100255.91
2022-10-17T21:46:17.061Z,100259.00
2022-10-17T21:48:44.612Z,100255.72
2022-10-17T21:51:14.596Z,100254.06
2022-10-17T21:53:41.835Z,100248.00
2022-10-17T21:56:11.847Z,100246.84
2022-10-17T21:58:38.562Z,100245.38
2022-10-17T22:01:15.950Z,100243.88
2022-10-17T22:03:46.777Z,100242.06
2022-10-17T22:09:18.379Z,100236.34
2022-10-17T22:11:47.971Z,100242.25
2022-10-17T22:14:19.580Z,100233.91
2022-10-17T22:16:47.401Z,100235.38
2022-10-17T22:19:16.661Z,100231.75
2022-10-17T22:21:43.128Z,100230.16
2022-10-17T22:24:12.518Z,100234.22
2022-10-17T22:26:39.697Z,100233.25
2022-10-17T22:29:07.730Z,100228.50
2022-10-17T22:31:35.554Z,100234.88
2022-10-17T22:34:03.555Z,100218.06
2022-10-17T22:36:31.722Z,100221.34
2022-10-17T22:38:58.176Z,100225.91
2022-10-17T22:41:24.756Z,100214.16
2022-10-17T22:43:51.228Z,100227.59
2022-10-17T22:46:17.689Z,100232.78
2022-10-17T22:48:44.583Z,100229.50
2022-10-17T22:51:11.689Z,100227.69
2022-10-17T22:53:38.365Z,100231.13
2022-10-17T22:56:10.989Z,100225.59
2022-10-17T22:58:37.886Z,100225.75
2022-10-17T23:01:05.660Z,100230.13
2022-10-17T23:03:32.864Z,100220.66
2022-10-17T23:05:59.909Z,100228.63
2022-10-17T23:08:27.108Z,100218.50
2022-10-17T23:10:54.256Z,100211.53
2022-10-17T23:13:21.023Z,100209.06
2022-10-17T23:15:50.690Z,100220.31
2022-10-17T23:18:17.430Z,100216.72
2022-10-17T23:20:44.112Z,100217.72
2022-10-17T23:23:10.587Z,100211.84
2022-10-17T23:25:37.190Z,100210.72
2022-10-17T23:28:03.784Z,100215.47
2022-10-17T23:30:32.039Z,100216.13
2022-10-17T23:32:58.639Z,100215.00
2022-10-17T23:35:25.233Z,100215.50
2022-10-17T23:37:51.741Z,100211.25
2022-10-17T23:40:18.311Z,100205.22
2022-10-17T23:42:44.755Z,100207.34
2022-10-17T23:45:11.665Z,100210.63
2022-10-17T23:47:38.370Z,100207.03
2022-10-17T23:50:06.641Z,100201.47
2022-10-17T23:52:33.188Z,100193.31
2022-10-17T23:54:59.705Z,100201.78
2022-10-17T23:57:26.337Z,100203.25
2022-10-17T23:59:52.788Z,100196.88
